Time;durP1;ratioP1;P1;durP2;ratioP2;P2;SDS_P1;SDS_P2;PMS_P1;PMS_P2;Temp;Humidity;BMP_temperature;BMP_pressure;BME280_temperature;BME280_humidity;BME280_pressure;Samples;Min_cycle;Max_cycle;Signal;HPM_P1;HPM_P2
2022/04/19 00:00:52;;;;;;;2.60;1.90;;;24.50;31.90;;;;;;5002650;28;20391;-64
2022/04/19 00:03:19;;;;;;;2.67;2.00;;;24.40;31.90;;;;;;5004059;28;20781;-63
2022/04/19 00:05:45;;;;;;;2.97;1.90;;;24.40;32.00;;;;;;5003702;28;20406;-64
2022/04/19 00:08:13;;;;;;;3.22;1.90;;;24.40;32.00;;;;;;5002559;28;20758;-63
2022/04/19 00:10:43;;;;;;;2.90;1.90;;;24.40;31.90;;;;;;5005283;28;20398;-64
2022/04/19 00:13:10;;;;;;;2.95;1.92;;;24.40;32.00;;;;;;5001391;28;20394;-63
2022/04/19 00:15:38;;;;;;;2.72;1.80;;;24.40;31.90;;;;;;5002470;28;20436;-65
2022/04/19 00:18:05;;;;;;;2.72;1.70;;;24.40;31.90;;;;;;5004475;28;20421;-63
2022/04/19 00:20:32;;;;;;;2.80;1.98;;;24.40;31.90;;;;;;4994930;28;20391;-63
2022/04/19 00:22:58;;;;;;;2.42;1.80;;;24.40;31.90;;;;;;4994366;28;20390;-63
2022/04/19 00:25:24;;;;;;;3.77;1.77;;;24.40;32.00;;;;;;4993922;28;20441;-63
2022/04/19 00:27:50;;;;;;;2.33;1.70;;;24.40;32.00;;;;;;4994624;28;20870;-63
2022/04/19 00:30:16;;;;;;;2.40;1.70;;;24.40;32.10;;;;;;4994508;28;20414;-63
2022/04/19 00:32:42;;;;;;;2.60;1.88;;;24.40;32.10;;;;;;4994646;28;20398;-63
2022/04/19 00:35:10;;;;;;;2.47;1.80;;;24.40;32.10;;;;;;4994481;28;20406;-63
2022/04/19 00:37:37;;;;;;;2.83;2.03;;;24.40;32.20;;;;;;4994130;28;20393;-63
2022/04/19 00:40:04;;;;;;;2.47;1.80;;;24.40;32.20;;;;;;4994356;28;20390;-62
2022/04/19 00:42:31;;;;;;;2.15;1.60;;;24.40;32.20;;;;;;4994512;28;20542;-63
2022/04/19 00:44:58;;;;;;;2.60;1.70;;;24.40;32.20;;;;;;4994417;28;20391;-63
2022/04/19 00:47:24;;;;;;;2.40;1.60;;;24.40;32.20;;;;;;4994262;28;20406;-63
2022/04/19 00:49:50;;;;;;;2.80;1.65;;;24.40;32.20;;;;;;4994102;28;20422;-64
2022/04/19 00:52:17;;;;;;;2.50;1.52;;;24.30;32.10;;;;;;4994350;28;20401;-63
2022/04/19 00:54:43;;;;;;;2.53;1.70;;;24.30;32.10;;;;;;4994284;28;20445;-62
2022/04/19 00:57:10;;;;;;;2.45;1.63;;;24.30;32.10;;;;;;4993951;28;20386;-63
2022/04/19 00:59:36;;;;;;;2.42;1.70;;;24.40;32.20;;;;;;4993509;28;20429;-65
2022/04/19 01:02:03;;;;;;;3.17;1.80;;;24.30;32.10;;;;;;4993976;28;20930;-62
2022/04/19 01:04:30;;;;;;;2.67;1.60;;;24.30;32.10;;;;;;4993991;28;20398;-63
2022/04/19 01:06:57;;;;;;;2.25;1.60;;;24.30;32.10;;;;;;4993963;28;20942;-63
2022/04/19 01:09:23;;;;;;;2.40;1.60;;;24.30;32.20;;;;;;4993725;28;20468;-64
2022/04/19 01:14:36;;;;;;;2.33;1.50;;;24.30;32.20;;;;;;4993952;28;20771;-64
2022/04/19 01:17:03;;;;;;;2.27;1.50;;;24.30;32.20;;;;;;4993804;28;20490;-64
2022/04/19 01:19:29;;;;;;;2.65;1.60;;;24.30;32.20;;;;;;4993290;28;20391;-65
2022/04/19 01:21:54;;;;;;;3.42;1.60;;;24.30;32.20;;;;;;4993685;28;20398;-63
2022/04/19 01:24:22;;;;;;;2.00;1.50;;;24.30;32.20;;;;;;4993492;28;20479;-65
2022/04/19 01:26:51;;;;;;;2.83;1.50;;;24.30;32.30;;;;;;4993609;28;20391;-65
2022/04/19 01:29:16;;;;;;;2.30;1.80;;;24.30;32.30;;;;;;4993542;28;20426;-65
2022/04/19 01:31:43;;;;;;;2.38;1.70;;;24.30;32.30;;;;;;4993111;28;20789;-63
2022/04/19 01:34:09;;;;;;;3.03;1.60;;;24.20;32.20;;;;;;4993405;28;20401;-63
2022/04/19 01:36:38;;;;;;;2.40;1.50;;;24.20;32.20;;;;;;4993471;28;20449;-65
2022/04/19 01:39:08;;;;;;;2.30;1.60;;;24.20;32.20;;;;;;4993516;28;20437;-63
2022/04/19 01:41:35;;;;;;;2.80;1.60;;;24.20;32.20;;;;;;4991901;28;20457;-63
2022/04/19 01:44:01;;;;;;;2.83;1.60;;;24.20;32.20;;;;;;4993395;28;20398;-63
2022/04/19 01:46:27;;;;;;;4.18;1.77;;;24.20;32.20;;;;;;4993628;28;20878;-63
2022/04/19 01:48:54;;;;;;;2.70;1.65;;;24.20;32.20;;;;;;4993642;28;20410;-63
2022/04/19 01:51:21;;;;;;;2.83;1.85;;;24.20;32.20;;;;;;4992071;28;20490;-62
2022/04/19 01:53:51;;;;;;;2.72;1.55;;;24.20;32.30;;;;;;4993111;28;20390;-63
2022/04/19 01:56:17;;;;;;;2.10;1.48;;;24.20;32.30;;;;;;4993570;28;20398;-63
2022/04/19 01:58:42;;;;;;;3.53;1.70;;;24.20;32.30;;;;;;4993138;28;20395;-65
2022/04/19 02:01:09;;;;;;;2.30;1.60;;;24.20;32.30;;;;;;4991939;28;20390;-65
2022/04/19 02:03:35;;;;;;;2.95;1.67;;;24.20;32.30;;;;;;4991587;28;20754;-62
2022/04/19 02:06:05;;;;;;;2.33;1.55;;;24.20;32.20;;;;;;4993032;28;20391;-65
2022/04/19 02:08:31;;;;;;;2.92;1.55;;;24.20;32.30;;;;;;4991962;28;20430;-62
2022/04/19 02:10:57;;;;;;;2.50;1.50;;;24.10;32.20;;;;;;4992035;28;20875;-63
2022/04/19 02:13:22;;;;;;;2.20;1.60;;;24.10;32.20;;;;;;4992640;28;20846;-62
2022/04/19 02:15:48;;;;;;;2.08;1.70;;;24.10;32.20;;;;;;4992522;28;20406;-63
2022/04/19 02:18:14;;;;;;;2.10;1.50;;;24.10;32.20;;;;;;4992706;28;20389;-62
2022/04/19 02:20:39;;;;;;;2.40;1.60;;;24.10;32.20;;;;;;4992749;28;20402;-65
2022/04/19 02:23:05;;;;;;;2.40;1.60;;;24.10;32.20;;;;;;4992712;28;20390;-65
2022/04/19 02:25:31;;;;;;;3.10;1.70;;;24.10;32.20;;;;;;4991976;28;20413;-63
2022/04/19 02:27:57;;;;;;;1.98;1.35;;;24.10;32.20;;;;;;4992778;28;20386;-63
2022/04/19 02:30:22;;;;;;;3.30;1.65;;;24.00;32.20;;;;;;4992609;28;20856;-63
2022/04/19 02:32:50;;;;;;;2.53;1.73;;;24.00;32.20;;;;;;4992388;28;20403;-63
2022/04/19 02:35:18;;;;;;;2.40;1.50;;;24.00;32.20;;;;;;4992334;28;20433;-63
2022/04/19 02:37:52;;;;;;;2.63;1.60;;;24.00;32.30;;;;;;4991876;28;20398;-63
2022/04/19 02:40:19;;;;;;;2.78;1.60;;;24.00;32.30;;;;;;4992381;28;20398;-63
2022/04/19 02:42:46;;;;;;;2.28;1.60;;;24.00;32.30;;;;;;4992351;28;20382;-64
2022/04/19 02:45:12;;;;;;;2.30;1.60;;;24.00;32.30;;;;;;4992391;28;21094;-63
2022/04/19 02:47:38;;;;;;;3.13;1.60;;;24.00;32.30;;;;;;4991874;28;20886;-62
2022/04/19 02:50:05;;;;;;;2.20;1.50;;;24.00;32.30;;;;;;4992198;28;20422;-62
2022/04/19 02:52:31;;;;;;;3.03;1.50;;;24.00;32.30;;;;;;4992217;28;20386;-63
2022/04/19 02:54:57;;;;;;;2.30;1.60;;;24.00;32.30;;;;;;4991913;28;20394;-62
2022/04/19 02:57:22;;;;;;;2.93;1.50;;;24.00;32.30;;;;;;4991677;28;20520;-62
2022/04/19 02:59:48;;;;;;;3.33;1.70;;;24.00;32.30;;;;;;4991532;28;20398;-65
2022/04/19 03:02:14;;;;;;;4.45;1.67;;;24.00;32.30;;;;;;4992457;28;20905;-62
2022/04/19 03:04:41;;;;;;;3.60;1.80;;;23.90;32.20;;;;;;4991994;28;20406;-62
2022/04/19 03:07:07;;;;;;;3.00;1.60;;;24.00;32.30;;;;;;4991996;28;20732;-63
2022/04/19 03:09:33;;;;;;;2.30;1.50;;;23.90;32.20;;;;;;4991826;28;20426;-63
2022/04/19 03:11:58;;;;;;;2.63;1.42;;;23.90;32.20;;;;;;4990657;28;20413;-63
2022/04/19 03:14:25;;;;;;;2.27;1.53;;;23.90;32.20;;;;;;4992606;28;20407;-64
2022/04/19 03:16:51;;;;;;;1.73;1.30;;;23.90;32.30;;;;;;4991828;28;20779;-66
2022/04/19 03:19:17;;;;;;;2.00;1.60;;;23.90;32.30;;;;;;4991834;28;20397;-64
2022/04/19 03:21:43;;;;;;;2.30;1.40;;;23.90;32.30;;;;;;4993702;28;20382;-63
2022/04/19 03:29:37;;;;;;;2.30;1.50;;;23.90;32.30;;;;;;4995556;28;20547;-63
2022/04/19 03:32:03;;;;;;;3.60;1.50;;;23.90;32.30;;;;;;4994562;28;20438;-63
2022/04/19 03:34:29;;;;;;;2.57;1.60;;;23.90;32.30;;;;;;4995581;28;20446;-65
2022/04/19 03:36:54;;;;;;;3.08;1.60;;;23.80;32.20;;;;;;4995766;28;20397;-64
2022/04/19 03:39:20;;;;;;;2.27;1.67;;;23.90;32.30;;;;;;4995696;28;20402;-63
2022/04/19 03:41:45;;;;;;;2.95;1.75;;;23.80;32.20;;;;;;4995182;28;21346;-65
2022/04/19 03:44:12;;;;;;;4.30;1.60;;;23.80;32.30;;;;;;4994319;28;20798;-65
2022/04/19 03:49:24;;;;;;;2.38;1.70;;;23.80;32.30;;;;;;4995397;28;20429;-62
2022/04/19 03:51:49;;;;;;;3.28;1.50;;;23.80;32.30;;;;;;4994947;28;20386;-63
2022/04/19 03:54:15;;;;;;;3.10;1.60;;;23.80;32.20;;;;;;4995481;28;20858;-65
2022/04/19 03:56:41;;;;;;;2.58;1.70;;;23.80;32.20;;;;;;4995289;28;20397;-64
2022/04/19 03:59:09;;;;;;;1.95;1.60;;;23.80;32.30;;;;;;4994125;28;20415;-65
2022/04/19 04:01:37;;;;;;;2.20;1.50;;;23.80;32.30;;;;;;4994931;28;20917;-62
2022/04/19 04:04:03;;;;;;;2.45;1.55;;;23.80;32.30;;;;;;4995167;28;20399;-63
2022/04/19 04:06:28;;;;;;;3.42;1.45;;;23.80;32.30;;;;;;4995191;28;20391;-62
2022/04/19 04:08:54;;;;;;;2.10;1.40;;;23.80;32.30;;;;;;4993778;28;20402;-64
2022/04/19 04:11:20;;;;;;;3.50;1.50;;;23.80;32.40;;;;;;4995113;28;20913;-65
2022/04/19 04:13:45;;;;;;;2.05;1.42;;;23.70;32.30;;;;;;4994495;28;20886;-62
2022/04/19 04:16:11;;;;;;;2.40;1.60;;;23.70;32.30;;;;;;4995068;28;20485;-62
2022/04/19 04:18:39;;;;;;;2.80;1.60;;;23.70;32.30;;;;;;4994984;28;20401;-63
2022/04/19 04:21:05;;;;;;;2.47;1.60;;;23.70;32.30;;;;;;4995845;28;20398;-63
2022/04/19 04:23:33;;;;;;;1.95;1.40;;;23.70;32.30;;;;;;4994915;28;20429;-65
2022/04/19 04:25:59;;;;;;;2.50;1.48;;;23.70;32.30;;;;;;4993485;28;20403;-63
2022/04/19 04:28:25;;;;;;;2.97;1.60;;;23.70;32.30;;;;;;4994499;28;20449;-63
2022/04/19 04:30:51;;;;;;;2.00;1.70;;;23.70;32.30;;;;;;4994726;28;20395;-66
2022/04/19 04:33:17;;;;;;;2.97;1.75;;;23.70;32.30;;;;;;4993956;28;20869;-63
2022/04/19 04:35:42;;;;;;;2.85;1.90;;;23.70;32.30;;;;;;4994118;28;20425;-65
2022/04/19 04:38:08;;;;;;;2.20;1.60;;;23.70;32.30;;;;;;4994828;28;20426;-65
2022/04/19 04:40:34;;;;;;;2.80;1.60;;;23.70;32.30;;;;;;4994958;28;20402;-63
2022/04/19 04:42:59;;;;;;;2.80;1.95;;;23.60;32.30;;;;;;4994527;28;20382;-63
2022/04/19 04:45:26;;;;;;;2.40;1.77;;;23.60;32.40;;;;;;4994517;28;20434;-63
2022/04/19 04:50:47;;;;;;;2.10;1.77;;;23.60;32.40;;;;;;4975535;28;20444;-62
2022/04/19 04:53:12;;;;;;;2.83;1.80;;;23.60;32.40;;;;;;4994286;28;20803;-65
2022/04/19 04:55:38;;;;;;;2.60;1.87;;;23.60;32.50;;;;;;4993051;28;20899;-63
2022/04/19 04:58:04;;;;;;;2.33;1.80;;;23.60;32.40;;;;;;4992967;28;20503;-63
2022/04/19 05:00:29;;;;;;;2.85;1.80;;;23.60;32.40;;;;;;4992971;28;20477;-63
2022/04/19 05:02:56;;;;;;;2.33;1.70;;;23.60;32.40;;;;;;4994162;28;20397;-65
2022/04/19 05:05:22;;;;;;;2.28;1.85;;;23.60;32.30;;;;;;4994350;28;20409;-63
2022/04/19 05:07:47;;;;;;;2.53;1.90;;;23.60;32.40;;;;;;4993757;28;20894;-63
2022/04/19 05:10:14;;;;;;;2.70;2.10;;;23.60;32.30;;;;;;4993662;28;20458;-65
2022/04/19 05:12:40;;;;;;;2.97;2.00;;;23.60;33.00;;;;;;4992910;28;20875;-65
2022/04/19 05:15:06;;;;;;;2.35;1.95;;;23.60;32.30;;;;;;4994017;28;20868;-65
2022/04/19 05:17:32;;;;;;;2.28;1.98;;;23.60;32.30;;;;;;4993852;28;20875;-65
2022/04/19 05:19:57;;;;;;;3.78;1.92;;;23.60;32.30;;;;;;4994385;28;20493;-63
2022/04/19 05:22:23;;;;;;;3.55;2.10;;;23.60;32.20;;;;;;4994611;28;20733;-64
2022/04/19 05:24:49;;;;;;;2.40;2.20;;;23.50;32.10;;;;;;4994688;28;20879;-63
2022/04/19 05:27:14;;;;;;;4.00;2.60;;;23.40;31.50;;;;;;4994964;28;20391;-62
2022/04/19 05:29:40;;;;;;;3.40;2.47;;;23.40;32.20;;;;;;4993963;28;20422;-63
2022/04/19 05:32:06;;;;;;;3.50;2.33;;;23.40;32.50;;;;;;4993826;28;20874;-61
2022/04/19 05:34:32;;;;;;;3.72;2.58;;;23.30;32.20;;;;;;4993897;28;20415;-63
2022/04/19 05:36:57;;;;;;;4.03;2.37;;;23.30;32.30;;;;;;4992779;28;20398;-64
2022/04/19 05:39:23;;;;;;;4.30;2.50;;;23.30;32.50;;;;;;5022501;28;20735;-64
2022/04/19 05:41:49;;;;;;;3.73;2.50;;;23.20;33.00;;;;;;5012399;28;20444;-64
2022/04/19 05:44:15;;;;;;;3.55;2.60;;;23.20;32.70;;;;;;5012837;28;20405;-64
2022/04/19 05:46:40;;;;;;;5.87;2.30;;;23.20;33.00;;;;;;5012896;28;20393;-65
2022/04/19 05:49:06;;;;;;;6.35;2.40;;;23.20;33.00;;;;;;5012850;28;20523;-64
2022/04/19 05:51:33;;;;;;;7.28;2.80;;;23.20;33.10;;;;;;5012735;28;20792;-64
2022/04/19 05:53:59;;;;;;;4.40;2.33;;;23.10;33.20;;;;;;5012445;28;20750;-64
2022/04/19 05:56:25;;;;;;;3.78;2.55;;;23.10;33.20;;;;;;5011145;28;20389;-64
2022/04/19 05:58:50;;;;;;;4.93;2.40;;;23.10;33.10;;;;;;5011990;28;20480;-64
2022/04/19 06:01:16;;;;;;;6.68;2.55;;;23.10;33.40;;;;;;5012501;28;20433;-64
2022/04/19 06:06:26;;;;;;;7.95;3.05;;;23.10;33.80;;;;;;5012452;28;20483;-64
2022/04/19 06:08:53;;;;;;;7.50;2.70;;;23.10;33.60;;;;;;5012314;28;21137;-63
2022/04/19 06:11:20;;;;;;;8.05;3.00;;;23.10;33.90;;;;;;5012552;28;20401;-65
2022/04/19 06:13:46;;;;;;;9.68;3.00;;;23.10;34.00;;;;;;5011992;28;20385;-67
2022/04/19 06:16:11;;;;;;;8.13;2.90;;;23.10;34.10;;;;;;5012375;28;20400;-63
2022/04/19 06:18:37;;;;;;;7.53;3.35;;;23.10;34.40;;;;;;5012171;28;20565;-64
2022/04/19 06:21:05;;;;;;;6.87;4.57;;;23.10;34.60;;;;;;5012174;28;20388;-67
2022/04/19 06:23:32;;;;;;;7.43;3.67;;;23.20;35.50;;;;;;5012292;28;20392;-66
2022/04/19 06:25:58;;;;;;;6.20;3.05;;;23.10;35.40;;;;;;5011495;28;20871;-65
2022/04/19 06:28:24;;;;;;;6.13;3.37;;;23.10;34.90;;;;;;5012079;28;20389;-66
2022/04/19 06:30:49;;;;;;;4.93;3.20;;;23.10;34.70;;;;;;5011980;28;20385;-65
2022/04/19 06:33:15;;;;;;;3.72;2.80;;;23.10;34.60;;;;;;5012084;28;20877;-62
2022/04/19 06:35:41;;;;;;;4.22;3.20;;;23.10;34.60;;;;;;5011586;28;20424;-65
2022/04/19 06:38:08;;;;;;;9.57;3.20;;;23.10;34.90;;;;;;5011727;28;20397;-62
2022/04/19 06:40:34;;;;;;;5.47;3.10;;;23.10;34.90;;;;;;5011905;28;20389;-61
2022/04/19 06:43:00;;;;;;;5.78;3.10;;;23.00;34.90;;;;;;5011768;28;20447;-66
2022/04/19 06:45:26;;;;;;;4.60;2.88;;;23.10;34.90;;;;;;5011957;28;20389;-65
2022/04/19 06:48:02;;;;;;;4.72;2.80;;;23.10;34.80;;;;;;5011419;28;20760;-66
2022/04/19 06:50:28;;;;;;;4.15;2.60;;;23.00;34.70;;;;;;5011805;28;20436;-63
2022/04/19 06:52:55;;;;;;;4.95;2.97;;;23.10;34.80;;;;;;5011727;28;20407;-63
2022/04/19 06:55:21;;;;;;;3.45;2.58;;;23.00;34.90;;;;;;5011345;28;20447;-61
2022/04/19 06:57:50;;;;;;;4.05;2.65;;;23.00;34.60;;;;;;5011216;28;20932;-61
2022/04/19 07:00:17;;;;;;;5.55;2.70;;;23.00;34.70;;;;;;5011740;28;20476;-65
2022/04/19 07:02:44;;;;;;;3.63;2.63;;;23.00;34.60;;;;;;5011686;28;20734;-64
2022/04/19 07:05:11;;;;;;;6.55;2.70;;;23.10;34.60;;;;;;5011650;28;20400;-64
2022/04/19 07:07:40;;;;;;;4.47;2.60;;;23.10;34.80;;;;;;5011592;28;20388;-63
2022/04/19 07:10:07;;;;;;;4.23;2.87;;;23.00;34.60;;;;;;5011017;28;20452;-62
2022/04/19 07:12:32;;;;;;;7.57;2.92;;;23.00;35.20;;;;;;5009779;28;20927;-62
2022/04/19 07:14:58;;;;;;;6.93;3.17;;;23.00;34.60;;;;;;5007432;28;20405;-64
2022/04/19 07:17:24;;;;;;;7.57;3.00;;;23.00;34.50;;;;;;5010126;28;20393;-64
2022/04/19 07:28:03;;;;;;;5.35;2.95;;;22.90;34.20;;;;;;5010493;28;20455;-64
2022/04/19 07:30:29;;;;;;;5.38;2.95;;;22.90;34.10;;;;;;5012553;28;20420;-64
2022/04/19 07:32:55;;;;;;;3.83;2.60;;;22.90;34.10;;;;;;5011697;28;20392;-62
2022/04/19 07:35:21;;;;;;;4.80;2.80;;;22.90;34.00;;;;;;5011166;28;20983;-63
2022/04/19 07:37:47;;;;;;;4.68;2.83;;;22.80;34.00;;;;;;5011010;28;20472;-63
2022/04/19 07:40:13;;;;;;;4.23;2.93;;;22.80;33.90;;;;;;5011274;28;20788;-63
2022/04/19 07:42:38;;;;;;;5.82;2.95;;;22.80;33.90;;;;;;5011228;28;20397;-64
2022/04/19 07:45:05;;;;;;;3.67;2.80;;;22.80;33.90;;;;;;5011271;28;20943;-63
2022/04/19 07:47:33;;;;;;;4.03;2.80;;;22.80;33.80;;;;;;5011266;28;20397;-63
2022/04/19 07:49:59;;;;;;;4.43;3.10;;;22.80;34.50;;;;;;5010672;28;20416;-62
2022/04/19 07:52:25;;;;;;;4.30;2.72;;;22.80;33.90;;;;;;5011249;28;20791;-62
2022/04/19 07:54:50;;;;;;;3.83;2.63;;;22.80;33.90;;;;;;5010962;28;20407;-62
2022/04/19 07:57:20;;;;;;;5.87;3.00;;;22.70;33.80;;;;;;5011293;28;20447;-63
2022/04/19 07:59:46;;;;;;;3.42;2.80;;;22.70;33.60;;;;;;5010883;28;20543;-62
2022/04/19 08:02:13;;;;;;;4.10;2.53;;;22.70;33.60;;;;;;5009522;28;20393;-62
2022/04/19 08:04:39;;;;;;;4.35;2.47;;;22.70;33.60;;;;;;5011068;28;20401;-63
2022/04/19 08:07:06;;;;;;;3.50;2.30;;;22.70;33.60;;;;;;5011168;28;20381;-62
2022/04/19 08:09:32;;;;;;;3.40;2.70;;;22.70;33.50;;;;;;5014206;28;20420;-62
2022/04/19 08:11:58;;;;;;;2.90;2.50;;;22.70;33.60;;;;;;5014148;28;20903;-62
2022/04/19 08:14:24;;;;;;;6.00;2.70;;;22.70;33.60;;;;;;5014605;28;20835;-63
2022/04/19 08:16:50;;;;;;;7.50;2.88;;;22.70;33.60;;;;;;5014639;28;20464;-64
2022/04/19 08:19:16;;;;;;;4.43;2.70;;;22.70;33.60;;;;;;5014217;28;20764;-64
2022/04/19 08:21:41;;;;;;;4.95;2.75;;;22.70;33.80;;;;;;5014041;28;20408;-64
2022/04/19 08:24:07;;;;;;;4.93;2.90;;;22.70;33.60;;;;;;5014996;28;20923;-63
2022/04/19 08:26:33;;;;;;;4.50;2.80;;;22.70;33.70;;;;;;5014360;28;20752;-64
2022/04/19 08:28:58;;;;;;;4.47;2.70;;;22.70;33.60;;;;;;5014844;28;20828;-62
2022/04/19 08:31:24;;;;;;;3.55;2.40;;;22.70;33.70;;;;;;5014330;28;20479;-62
2022/04/19 08:33:50;;;;;;;4.83;2.70;;;22.70;33.70;;;;;;5013811;28;20797;-62
2022/04/19 08:36:15;;;;;;;3.93;2.47;;;22.60;33.60;;;;;;5014333;28;20389;-63
2022/04/19 08:38:41;;;;;;;4.13;2.80;;;22.70;33.60;;;;;;5014268;28;20436;-63
2022/04/19 08:41:07;;;;;;;4.22;2.40;;;22.70;33.60;;;;;;5014493;28;20760;-62
2022/04/19 08:43:34;;;;;;;3.93;2.40;;;22.60;33.50;;;;;;5012670;28;20392;-64
2022/04/19 08:46:02;;;;;;;10.52;3.08;;;22.60;33.50;;;;;;5014044;28;20393;-64
2022/04/19 08:48:28;;;;;;;8.98;2.90;;;22.50;33.50;;;;;;5014211;28;20389;-63
2022/04/19 08:50:57;;;;;;;10.82;3.20;;;22.50;33.50;;;;;;5005862;28;20393;-65
2022/04/19 08:58:52;;;;;;;7.95;3.10;;;22.60;33.40;;;;;;5003383;28;20460;-66
2022/04/19 09:01:17;;;;;;;10.63;3.50;;;22.60;33.30;;;;;;5003070;28;20398;-64
2022/04/19 09:03:43;;;;;;;9.70;3.10;;;22.70;33.40;;;;;;5003049;28;20412;-64
2022/04/19 09:06:10;;;;;;;8.65;3.10;;;22.70;33.50;;;;;;5004141;28;20416;-65
2022/04/19 09:08:35;;;;;;;10.15;3.05;;;22.70;33.50;;;;;;5002948;28;20898;-65
2022/04/19 09:11:08;;;;;;;11.35;3.28;;;22.70;33.70;;;;;;5002167;28;20455;-65
2022/04/19 09:13:35;;;;;;;8.10;3.20;;;23.20;34.30;;;;;;5003937;28;20386;-64
2022/04/19 09:16:08;;;;;;;9.75;3.10;;;22.70;33.90;;;;;;5002813;28;20419;-65
2022/04/19 09:18:36;;;;;;;9.55;4.32;;;22.80;34.40;;;;;;5001938;28;20387;-66
2022/04/19 09:21:04;;;;;;;35.03;16.30;;;22.90;34.20;;;;;;5000414;28;20467;-65
2022/04/19 09:23:32;;;;;;;58.88;40.80;;;23.00;35.30;;;;;;5001520;28;20412;-64
2022/04/19 09:26:00;;;;;;;122.13;108.67;;;23.10;35.30;;;;;;5012635;28;20392;-65
2022/04/19 09:28:27;;;;;;;79.20;46.72;;;23.20;35.70;;;;;;5012868;28;20389;-65
2022/04/19 09:30:58;;;;;;;55.15;38.67;;;23.30;37.30;;;;;;5013131;28;20408;-65
2022/04/19 09:33:25;;;;;;;49.00;40.33;;;23.30;38.40;;;;;;5013114;28;20389;-64
2022/04/19 09:35:53;;;;;;;45.15;34.53;;;23.40;36.80;;;;;;5012643;28;20503;-65
2022/04/19 09:38:34;;;;;;;40.05;30.00;;;23.40;36.90;;;;;;5012597;28;20392;-63
2022/04/19 09:41:00;;;;;;;42.83;30.05;;;23.50;35.90;;;;;;5012734;28;20491;-63
2022/04/19 09:43:26;;;;;;;35.92;27.60;;;23.50;36.30;;;;;;5012914;28;20421;-65
2022/04/19 09:45:59;;;;;;;36.35;27.58;;;23.50;35.70;;;;;;5011304;28;20478;-65
2022/04/19 09:48:36;;;;;;;33.75;26.02;;;23.50;35.60;;;;;;5005352;28;20469;-65
2022/04/19 09:51:07;;;;;;;38.90;30.20;;;23.50;35.50;;;;;;5001931;28;20406;-67
2022/04/19 09:53:47;;;;;;;37.90;25.90;;;23.50;35.20;;;;;;4996705;28;20525;-67
2022/04/19 09:56:16;;;;;;;36.30;25.60;;;23.50;36.10;;;;;;5012748;28;20865;-67
2022/04/19 09:58:44;;;;;;;36.85;24.80;;;23.60;36.50;;;;;;5011061;28;20868;-66
2022/04/19 10:08:10;;;;;;;33.15;23.13;;;23.70;35.30;;;;;;5012738;28;20458;-67
2022/04/19 10:09:37;;;;;;;29.25;19.45;;;23.90;36.70;;;;;;5012467;28;20467;-66
2022/04/19 10:12:05;;;;;;;28.65;20.15;;;23.90;36.10;;;;;;5011737;28;20385;-67
2022/04/19 10:14:32;;;;;;;24.25;17.83;;;23.90;35.90;;;;;;5012311;28;20966;-66
2022/04/19 10:16:58;;;;;;;24.05;17.17;;;23.90;35.80;;;;;;5007774;28;20406;-67
2022/04/19 10:19:25;;;;;;;23.13;16.63;;;23.90;36.40;;;;;;5004167;28;20752;-67
2022/04/19 10:21:52;;;;;;;21.15;14.40;;;23.90;36.30;;;;;;4999681;28;20382;-66
2022/04/19 10:24:19;;;;;;;25.13;14.88;;;23.90;36.50;;;;;;4992245;28;20766;-66
2022/04/19 10:26:51;;;;;;;20.55;13.70;;;23.90;36.60;;;;;;4992327;28;20391;-67
2022/04/19 10:29:25;;;;;;;21.75;13.40;;;24.00;37.30;;;;;;4991151;28;20500;-67
2022/04/19 10:32:03;;;;;;;23.52;13.20;;;24.00;37.30;;;;;;4991569;28;20403;-66
2022/04/19 10:34:33;;;;;;;22.88;13.23;;;24.00;37.60;;;;;;4990859;28;20752;-67
2022/04/19 10:37:18;;;;;;;18.27;11.68;;;24.10;38.00;;;;;;4992334;28;20398;-66
2022/04/19 10:39:48;;;;;;;19.17;10.87;;;24.10;37.70;;;;;;4992004;28;20948;-67
2022/04/19 10:42:32;;;;;;;17.13;10.23;;;24.10;37.00;;;;;;4990830;28;20390;-67
2022/04/19 10:45:10;;;;;;;15.15;9.68;;;24.10;36.80;;;;;;4992027;28;20981;-66
2022/04/19 10:47:58;;;;;;;17.65;9.60;;;24.10;36.90;;;;;;4992084;28;20390;-67
2022/04/19 10:50:35;;;;;;;30.27;10.10;;;24.10;36.10;;;;;;5006703;28;21720;-65
2022/04/19 10:53:03;;;;;;;26.63;10.30;;;24.00;36.20;;;;;;5011760;28;20480;-66
2022/04/19 10:55:34;;;;;;;21.70;9.17;;;23.90;36.90;;;;;;5011825;28;20978;-66
2022/04/19 11:00:55;;;;;;;16.50;7.63;;;23.90;36.30;;;;;;5011691;28;20389;-66
2022/04/19 11:03:33;;;;;;;14.50;7.78;;;23.90;35.20;;;;;;5011758;28;20451;-65
2022/04/19 11:06:01;;;;;;;16.73;7.47;;;23.90;36.00;;;;;;5011146;28;20865;-66
2022/04/19 11:08:29;;;;;;;21.65;7.57;;;23.90;36.00;;;;;;5011448;28;20878;-66
2022/04/19 11:10:58;;;;;;;13.48;7.10;;;23.90;36.20;;;;;;5011581;28;20404;-66
2022/04/19 11:13:31;;;;;;;14.07;6.65;;;23.90;35.90;;;;;;5011749;28;20769;-66
2022/04/19 11:16:01;;;;;;;13.10;6.30;;;23.90;35.70;;;;;;5011338;28;20476;-66
2022/04/19 11:18:29;;;;;;;13.43;6.28;;;24.00;35.70;;;;;;5005818;28;20394;-66
2022/04/19 11:20:57;;;;;;;10.23;5.82;;;24.00;35.50;;;;;;4998938;28;20508;-66
2022/04/19 11:23:24;;;;;;;13.93;5.55;;;24.00;35.40;;;;;;4999623;28;20390;-65
2022/04/19 11:25:51;;;;;;;9.45;5.00;;;24.00;35.30;;;;;;5001285;28;20885;-67
2022/04/19 11:28:19;;;;;;;11.88;4.80;;;23.90;35.20;;;;;;4999273;28;20938;-66
2022/04/19 11:31:06;;;;;;;8.45;4.90;;;23.90;35.20;;;;;;4999251;28;20410;-66
2022/04/19 11:33:34;;;;;;;9.30;4.50;;;23.90;35.30;;;;;;5000087;28;20418;-66
2022/04/19 11:36:03;;;;;;;8.85;4.70;;;23.90;35.30;;;;;;5001671;28;20458;-66
2022/04/19 11:38:30;;;;;;;7.93;4.30;;;23.90;35.20;;;;;;5000031;28;20470;-66
2022/04/19 11:46:45;;;;;;;8.65;4.18;;;23.90;35.70;;;;;;5002646;28;20396;-65
2022/04/19 11:49:20;;;;;;;8.57;4.20;;;23.90;35.10;;;;;;5004007;28;20429;-65
2022/04/19 11:51:55;;;;;;;7.30;3.55;;;23.90;35.10;;;;;;5003253;28;20531;-66
2022/04/19 11:54:20;;;;;;;6.32;3.25;;;23.90;34.80;;;;;;5002994;28;20408;-66
2022/04/19 11:56:53;;;;;;;7.45;3.47;;;23.90;34.40;;;;;;5003174;28;20395;-65
2022/04/19 11:59:28;;;;;;;11.20;3.80;;;24.00;34.10;;;;;;5005887;28;20967;-65
2022/04/19 12:01:55;;;;;;;6.43;3.38;;;23.90;34.20;;;;;;5002439;28;20405;-63
2022/04/19 12:04:21;;;;;;;7.63;3.35;;;23.90;34.00;;;;;;5001534;28;20822;-65
2022/04/19 12:07:01;;;;;;;8.63;3.70;;;23.90;34.40;;;;;;5004542;28;20485;-65
2022/04/19 12:09:28;;;;;;;8.07;3.30;;;23.90;34.00;;;;;;5002843;28;20448;-64
2022/04/19 12:11:54;;;;;;;10.52;3.65;;;23.90;33.70;;;;;;5003063;28;20467;-64
2022/04/19 12:14:30;;;;;;;8.13;3.38;;;23.90;33.70;;;;;;5004422;28;20399;-65
2022/04/19 12:17:06;;;;;;;7.68;3.40;;;23.90;34.00;;;;;;5004067;28;20838;-65
2022/04/19 12:19:35;;;;;;;7.57;3.42;;;23.80;33.90;;;;;;5003500;28;20425;-65
2022/04/19 12:22:13;;;;;;;8.00;3.42;;;23.90;34.10;;;;;;5011873;28;20415;-65
2022/04/19 12:24:45;;;;;;;5.90;3.22;;;23.90;33.90;;;;;;5014510;28;20409;-64
2022/04/19 12:27:10;;;;;;;7.50;3.70;;;23.90;33.80;;;;;;5014473;28;20384;-65
2022/04/19 12:29:53;;;;;;;8.18;3.70;;;23.90;34.20;;;;;;5014290;28;20498;-65
2022/04/19 12:32:19;;;;;;;7.32;3.90;;;23.90;34.90;;;;;;5013142;28;20480;-65
2022/04/19 12:34:44;;;;;;;6.55;3.60;;;23.90;33.80;;;;;;5013736;28;20809;-64
2022/04/19 12:37:13;;;;;;;9.80;3.70;;;24.10;33.60;;;;;;5011972;28;20389;-64
2022/04/19 12:39:40;;;;;;;6.20;3.50;;;23.90;33.50;;;;;;5014239;28;20978;-63
2022/04/19 12:42:07;;;;;;;6.35;3.60;;;23.90;33.40;;;;;;5013707;28;20452;-62
2022/04/19 12:44:35;;;;;;;7.15;3.50;;;23.80;33.50;;;;;;5012579;28;20893;-62
2022/04/19 12:47:05;;;;;;;7.85;3.47;;;23.90;33.50;;;;;;5013696;28;20389;-63
2022/04/19 12:49:31;;;;;;;9.23;3.60;;;23.90;33.50;;;;;;5013746;28;20892;-63
2022/04/19 12:52:02;;;;;;;11.82;3.53;;;23.90;33.80;;;;;;5000891;28;20402;-64
2022/04/19 12:54:29;;;;;;;7.22;3.10;;;23.80;33.70;;;;;;4993447;28;20473;-64
2022/04/19 12:57:10;;;;;;;10.93;3.50;;;23.90;33.60;;;;;;4995796;28;20394;-63
2022/04/19 12:59:35;;;;;;;6.82;3.13;;;23.80;33.90;;;;;;4993989;28;20420;-63
2022/04/19 13:02:01;;;;;;;7.47;2.90;;;23.80;33.60;;;;;;4992636;28;20434;-64
2022/04/19 13:04:28;;;;;;;6.93;3.10;;;23.80;33.60;;;;;;4994244;28;20391;-64
2022/04/19 13:12:26;;;;;;;7.07;2.78;;;23.90;33.40;;;;;;4993950;28;20409;-64
2022/04/19 13:14:57;;;;;;;7.47;2.80;;;23.90;33.40;;;;;;4993914;28;20402;-64
2022/04/19 13:17:26;;;;;;;9.05;3.50;;;23.90;33.40;;;;;;4999939;28;20424;-68
2022/04/19 13:19:51;;;;;;;6.05;2.83;;;23.80;33.50;;;;;;5001086;28;20393;-64
2022/04/19 13:22:18;;;;;;;5.28;2.55;;;23.90;33.50;;;;;;5005061;28;20401;-64
2022/04/19 13:24:44;;;;;;;7.63;2.70;;;23.80;33.50;;;;;;5004201;28;20476;-65
2022/04/19 13:27:11;;;;;;;6.00;2.72;;;23.80;33.60;;;;;;4995627;28;20394;-63
2022/04/19 13:29:38;;;;;;;5.95;2.88;;;23.80;33.60;;;;;;4992380;28;20423;-63
2022/04/19 13:32:05;;;;;;;8.93;3.00;;;23.80;33.60;;;;;;5003484;28;20390;-64
2022/04/19 13:34:31;;;;;;;7.35;3.08;;;23.80;33.90;;;;;;5003254;28;20466;-62